createdAt,value
2019-02-06T00:00:09.035Z,98.30
2019-02-06T00:01:09.020Z,97.84
2019-02-06T00:02:09.032Z,98.20
2019-02-06T00:03:08.998Z,97.63
2019-02-06T00:04:08.988Z,97.88
2019-02-06T00:05:14.076Z,98.47
2019-02-06T00:06:09.992Z,98.36
2019-02-06T00:07:08.963Z,98.16
2019-02-06T00:08:09.017Z,98.05
2019-02-06T00:09:08.947Z,97.63
2019-02-06T00:10:08.938Z,98.16
2019-02-06T00:11:08.914Z,97.84
2019-02-06T00:12:08.907Z,97.84
2019-02-06T00:13:08.920Z,98.05
2019-02-06T00:14:08.920Z,98.30
2019-02-06T00:15:08.874Z,98.05
2019-02-06T00:16:08.875Z,98.05
2019-02-06T00:17:19.409Z,98.10
2019-02-06T00:18:08.866Z,98.16
2019-02-06T00:19:08.835Z,98.26
2019-02-06T00:20:08.858Z,98.05
2019-02-06T00:21:08.812Z,98.26
2019-02-06T00:22:08.805Z,98.26
2019-02-06T00:23:08.793Z,98.05
2019-02-06T00:24:08.780Z,98.05
2019-02-06T00:25:08.769Z,98.26
2019-02-06T00:26:08.800Z,98.10
2019-02-06T00:27:08.747Z,98.10
2019-02-06T00:28:08.734Z,98.05
2019-02-06T00:29:08.724Z,98.20
2019-02-06T00:30:08.716Z,98.16
2019-02-06T00:31:08.711Z,98.16
2019-02-06T00:32:08.819Z,98.05
2019-02-06T00:33:08.685Z,98.26
2019-02-06T00:34:08.670Z,98.05
2019-02-06T00:35:08.664Z,98.16
2019-02-06T00:36:08.653Z,98.10
2019-02-06T00:37:08.637Z,97.84
2019-02-06T00:38:08.643Z,98.16
2019-02-06T00:39:08.622Z,98.10
2019-02-06T00:40:08.614Z,98.30
2019-02-06T00:41:08.595Z,97.78
2019-02-06T00:42:08.582Z,97.84
2019-02-06T00:43:08.574Z,97.88
2019-02-06T00:44:08.598Z,98.20
2019-02-06T00:45:08.557Z,97.99
2019-02-06T00:46:08.546Z,97.94
2019-02-06T00:47:08.533Z,97.67
2019-02-06T00:48:19.090Z,97.88
2019-02-06T00:49:08.511Z,97.99
2019-02-06T00:50:08.533Z,98.10
2019-02-06T00:51:08.493Z,97.99
2019-02-06T00:52:08.477Z,98.10
2019-02-06T00:53:08.471Z,98.30
2019-02-06T00:54:08.460Z,98.16
2019-02-06T00:55:08.445Z,98.41
2019-02-06T00:56:08.478Z,98.10
2019-02-06T00:57:08.425Z,98.10
2019-02-06T00:58:08.414Z,98.30
2019-02-06T00:59:08.409Z,98.10
2019-02-06T01:00:08.400Z,98.10
2019-02-06T01:01:08.390Z,98.30
2019-02-06T01:02:08.554Z,98.30
2019-02-06T01:03:08.373Z,98.52
2019-02-06T01:04:08.357Z,98.10
2019-02-06T01:05:08.347Z,98.10
2019-02-06T01:06:08.331Z,98.20
2019-02-06T01:07:08.324Z,98.10
2019-02-06T01:08:08.408Z,98.41
2019-02-06T01:09:08.303Z,98.41
2019-02-06T01:10:08.295Z,98.05
2019-02-06T01:11:08.282Z,98.41
2019-02-06T01:12:08.277Z,98.16
2019-02-06T01:13:08.262Z,98.30
2019-02-06T01:14:08.289Z,98.10
2019-02-06T01:15:08.238Z,98.10
2019-02-06T01:16:08.222Z,98.20
2019-02-06T01:17:08.216Z,98.30
2019-02-06T01:18:08.208Z,97.99
2019-02-06T01:19:19.342Z,97.99
2019-02-06T01:20:08.189Z,97.84
2019-02-06T01:21:08.176Z,98.30
2019-02-06T01:22:08.161Z,98.16
2019-02-06T01:23:08.154Z,98.26
2019-02-06T01:24:08.146Z,98.41
2019-02-06T01:25:08.307Z,98.10
2019-02-06T01:26:08.122Z,98.20
2019-02-06T01:27:08.111Z,98.10
2019-02-06T01:28:08.095Z,97.88
2019-02-06T01:29:08.092Z,97.47
2019-02-06T01:30:08.075Z,98.10
2019-02-06T01:31:08.101Z,97.99
2019-02-06T01:32:08.057Z,98.41
2019-02-06T01:33:08.051Z,98.30
2019-02-06T01:34:08.036Z,97.78
2019-02-06T01:35:08.023Z,98.10
2019-02-06T01:36:08.013Z,98.20
2019-02-06T01:37:08.043Z,97.78
2019-02-06T01:38:07.998Z,97.84
2019-02-06T01:39:07.979Z,98.20
2019-02-06T01:40:07.966Z,98.30
2019-02-06T01:41:07.962Z,98.20
2019-02-06T01:42:07.947Z,97.99
2019-02-06T01:43:07.976Z,98.30
2019-02-06T01:44:07.929Z,98.20
2019-02-06T01:45:07.919Z,98.47
2019-02-06T01:46:07.903Z,98.68
2019-02-06T01:47:07.917Z,98.16
2019-02-06T01:48:07.884Z,98.16
2019-02-06T01:49:08.042Z,97.74
2019-02-06T01:50:20.108Z,98.26
2019-02-06T01:51:07.849Z,97.99
2019-02-06T01:52:07.841Z,98.30
2019-02-06T01:53:07.832Z,97.67
2019-02-06T01:54:07.823Z,97.88
2019-02-06T01:55:07.848Z,97.94
2019-02-06T01:56:07.806Z,98.72
2019-02-06T01:57:07.787Z,98.52
2019-02-06T01:58:07.786Z,98.30
2019-02-06T01:59:07.769Z,98.30
2019-02-06T02:00:07.760Z,98.20
2019-02-06T02:01:07.792Z,98.30
2019-02-06T02:02:07.735Z,98.41
2019-02-06T02:03:07.737Z,98.30
2019-02-06T02:04:07.721Z,98.10
2019-02-06T02:05:07.701Z,98.52
2019-02-06T02:06:07.702Z,98.52
2019-02-06T02:07:07.716Z,97.99
2019-02-06T02:08:07.673Z,98.30
2019-02-06T02:09:07.667Z,98.62
2019-02-06T02:10:07.654Z,98.62
2019-02-06T02:11:07.638Z,98.72
2019-02-06T02:12:07.628Z,98.30
2019-02-06T02:13:07.659Z,98.16
2019-02-06T02:14:07.607Z,98.30
2019-02-06T02:15:07.602Z,98.10
2019-02-06T02:16:07.594Z,97.94
2019-02-06T02:17:07.583Z,98.72
2019-02-06T02:18:07.565Z,98.52
2019-02-06T02:19:07.588Z,98.20
2019-02-06T02:20:07.548Z,98.20
2019-02-06T02:21:17.963Z,98.30
2019-02-06T02:22:07.525Z,97.99
2019-02-06T02:23:07.511Z,98.30
2019-02-06T02:24:07.503Z,98.20
2019-02-06T02:25:07.528Z,98.30
2019-02-06T02:26:07.483Z,98.52
2019-02-06T02:27:07.473Z,98.30
2019-02-06T02:28:07.464Z,98.52
2019-02-06T02:29:07.457Z,98.20
2019-02-06T02:30:07.440Z,98.72
2019-02-06T02:31:07.469Z,98.72
2019-02-06T02:32:07.423Z,98.83
2019-02-06T02:33:07.408Z,99.15
2019-02-06T02:34:07.402Z,99.36
2019-02-06T02:35:07.398Z,99.57
2019-02-06T02:36:15.920Z,99.46
2019-02-06T02:37:08.414Z,99.46
2019-02-06T02:38:07.351Z,99.04
2019-02-06T02:39:07.343Z,99.46
2019-02-06T02:40:07.338Z,99.46
2019-02-06T02:41:07.320Z,99.46
2019-02-06T02:42:07.315Z,99.46
2019-02-06T02:43:07.336Z,99.46
2019-02-06T02:44:07.295Z,99.36
2019-02-06T02:45:07.288Z,99.04
2019-02-06T02:46:07.277Z,98.83
2019-02-06T02:47:07.259Z,98.72
2019-02-06T02:48:07.255Z,99.04
2019-02-06T02:49:07.279Z,98.83
2019-02-06T02:50:07.227Z,98.62
2019-02-06T02:51:07.223Z,98.20
2019-02-06T02:52:19.098Z,98.52
2019-02-06T02:53:07.201Z,98.83
2019-02-06T02:54:07.187Z,98.62
2019-02-06T02:55:07.218Z,98.94
2019-02-06T02:56:07.168Z,98.41
2019-02-06T02:57:07.158Z,98.62
2019-02-06T02:58:07.153Z,98.41
2019-02-06T02:59:07.172Z,97.88
2019-02-06T03:00:07.128Z,98.62
2019-02-06T03:01:07.403Z,98.41
2019-02-06T03:02:07.105Z,98.52
2019-02-06T03:03:07.121Z,98.52
2019-02-06T03:04:07.077Z,97.99
2019-02-06T03:05:07.127Z,98.62
2019-02-06T03:06:07.066Z,98.72
2019-02-06T03:07:07.115Z,98.94
2019-02-06T03:08:07.036Z,98.72
2019-02-06T03:09:07.023Z,98.20
2019-02-06T03:10:07.017Z,98.41
2019-02-06T03:11:07.006Z,98.20
2019-02-06T03:12:07.012Z,98.30
2019-02-06T03:13:07.237Z,98.30
2019-02-06T03:14:07.052Z,98.88
2019-02-06T03:15:06.967Z,98.66
2019-02-06T03:16:06.957Z,98.30
2019-02-06T03:17:06.942Z,98.30
2019-02-06T03:18:06.931Z,98.88
2019-02-06T03:19:06.996Z,98.83
2019-02-06T03:20:06.907Z,98.20
2019-02-06T03:21:06.899Z,98.30
2019-02-06T03:22:06.892Z,98.10
2019-02-06T03:23:18.252Z,98.41
2019-02-06T03:24:06.874Z,98.41
2019-02-06T03:25:06.951Z,97.99
2019-02-06T03:26:06.845Z,98.72
2019-02-06T03:27:06.845Z,98.77
2019-02-06T03:28:06.833Z,98.72
2019-02-06T03:29:06.815Z,98.83
2019-02-06T03:30:06.803Z,99.04
2019-02-06T03:31:06.853Z,98.52
2019-02-06T03:32:06.781Z,98.52
2019-02-06T03:33:06.775Z,98.52
2019-02-06T03:34:06.777Z,98.41
2019-02-06T03:35:06.862Z,97.93
2019-02-06T03:36:06.745Z,98.10
2019-02-06T03:37:06.768Z,98.41
2019-02-06T03:38:06.720Z,98.30
2019-02-06T03:39:06.713Z,98.46
2019-02-06T03:40:06.699Z,98.03
2019-02-06T03:41:06.687Z,98.41
2019-02-06T03:42:06.684Z,98.10
2019-02-06T03:43:06.707Z,98.20
2019-02-06T03:44:06.653Z,98.52
2019-02-06T03:45:06.648Z,97.99
2019-02-06T03:46:06.633Z,98.35
2019-02-06T03:47:06.631Z,98.46
2019-02-06T03:48:06.630Z,98.41
2019-02-06T03:49:06.677Z,98.46
2019-02-06T03:50:06.589Z,98.41
2019-02-06T03:51:06.586Z,98.41
2019-02-06T03:52:06.577Z,98.14
2019-02-06T03:53:06.561Z,98.46
2019-02-06T03:54:17.402Z,98.30
2019-02-06T03:55:06.538Z,98.10
2019-02-06T03:56:06.534Z,98.62
2019-02-06T03:57:06.520Z,98.83
2019-02-06T03:58:06.505Z,98.83
2019-02-06T03:59:06.506Z,98.46
2019-02-06T04:00:06.515Z,98.52
2019-02-06T04:01:06.476Z,98.14
2019-02-06T04:02:06.473Z,98.56
2019-02-06T04:03:06.467Z,98.66
2019-02-06T04:04:06.445Z,98.88
2019-02-06T04:05:06.434Z,98.62
2019-02-06T04:06:06.599Z,98.72
2019-02-06T04:07:06.410Z,98.77
2019-02-06T04:08:06.404Z,98.72
2019-02-06T04:09:06.396Z,98.83
2019-02-06T04:10:06.384Z,99.25
2019-02-06T04:11:06.370Z,99.51
2019-02-06T04:12:06.396Z,99.61
2019-02-06T04:13:06.350Z,99.51
2019-02-06T04:14:06.337Z,99.40
2019-02-06T04:15:06.336Z,99.19
2019-02-06T04:16:06.323Z,99.19
2019-02-06T04:17:06.304Z,99.25
2019-02-06T04:18:06.333Z,99.30
2019-02-06T04:19:06.287Z,99.15
2019-02-06T04:20:06.274Z,99.25
2019-02-06T04:21:06.265Z,99.15
2019-02-06T04:22:06.260Z,99.15
2019-02-06T04:23:06.247Z,99.04
2019-02-06T04:24:06.266Z,99.30
2019-02-06T04:25:16.327Z,99.25
2019-02-06T04:26:06.213Z,99.46
2019-02-06T04:27:06.196Z,99.04
2019-02-06T04:28:06.191Z,99.72
2019-02-06T04:29:06.179Z,99.82
2019-02-06T04:30:06.207Z,99.61
2019-02-06T04:31:06.158Z,99.61
2019-02-06T04:32:06.149Z,99.72
2019-02-06T04:33:06.136Z,99.67
2019-02-06T04:34:06.121Z,99.57
2019-02-06T04:35:06.111Z,99.57
2019-02-06T04:36:06.202Z,99.57
2019-02-06T04:37:07.111Z,99.61
2019-02-06T04:38:06.086Z,99.57
2019-02-06T04:39:06.075Z,99.46
2019-02-06T04:40:06.065Z,99.51
2019-02-06T04:41:06.058Z,99.57
2019-02-06T04:42:06.145Z,99.57
2019-02-06T04:43:06.106Z,99.57
2019-02-06T04:44:06.026Z,99.57
2019-02-06T04:45:06.009Z,99.57
2019-02-06T04:46:06.000Z,99.61
2019-02-06T04:47:05.985Z,99.51
2019-02-06T04:48:06.006Z,99.61
2019-02-06T04:49:05.965Z,99.67
2019-02-06T04:50:05.968Z,99.72
2019-02-06T04:51:05.950Z,99.67
2019-02-06T04:52:05.935Z,99.82
2019-02-06T04:53:05.926Z,99.72
2019-02-06T04:54:05.947Z,99.30
2019-02-06T04:55:05.905Z,99.25
2019-02-06T04:56:16.682Z,99.08
2019-02-06T04:57:09.356Z,99.57
2019-02-06T04:58:05.874Z,99.04
2019-02-06T04:59:05.862Z,99.51
2019-02-06T05:00:05.894Z,99.46
2019-02-06T05:01:05.840Z,99.46
2019-02-06T05:02:05.826Z,99.19
2019-02-06T05:03:05.818Z,99.25
2019-02-06T05:04:05.802Z,98.94
2019-02-06T05:05:05.791Z,98.83
2019-02-06T05:06:05.929Z,99.19
2019-02-06T05:07:18.259Z,99.19
2019-02-06T05:08:06.774Z,99.19
2019-02-06T05:09:05.757Z,99.30
2019-02-06T05:10:05.862Z,99.15
2019-02-06T05:11:05.728Z,99.19
2019-02-06T05:12:09.299Z,98.98
2019-02-06T05:13:05.712Z,99.04
2019-02-06T05:14:05.704Z,99.15
2019-02-06T05:15:05.683Z,99.25
2019-02-06T05:16:05.678Z,99.30
2019-02-06T05:17:05.730Z,99.51
2019-02-06T05:18:05.695Z,99.04
2019-02-06T05:19:05.642Z,99.40
2019-02-06T05:20:05.645Z,99.51
2019-02-06T05:21:05.644Z,99.78
2019-02-06T05:22:05.633Z,99.51
2019-02-06T05:23:05.608Z,99.40
2019-02-06T05:24:05.610Z,99.61
2019-02-06T05:25:05.582Z,99.15
2019-02-06T05:26:05.570Z,99.72
2019-02-06T05:27:15.625Z,99.40
2019-02-06T05:28:05.549Z,99.78
2019-02-06T05:29:05.535Z,99.82
2019-02-06T05:30:05.559Z,99.67
2019-02-06T05:31:05.525Z,99.25
2019-02-06T05:32:05.513Z,99.04
2019-02-06T05:33:05.499Z,99.30
2019-02-06T05:34:05.496Z,98.94
2019-02-06T05:35:05.483Z,99.36
2019-02-06T05:36:05.636Z,99.61
2019-02-06T05:37:05.457Z,99.72
2019-02-06T05:38:05.442Z,99.78
2019-02-06T05:39:05.435Z,99.82
2019-02-06T05:40:05.425Z,99.61
2019-02-06T05:41:05.422Z,99.82
2019-02-06T05:42:05.437Z,99.78
2019-02-06T05:43:05.388Z,99.72
2019-02-06T05:44:05.384Z,99.82
2019-02-06T05:45:05.372Z,99.30
2019-02-06T05:46:05.353Z,99.30
2019-02-06T05:47:05.357Z,99.08
2019-02-06T05:48:05.431Z,99.15
2019-02-06T05:49:05.329Z,99.25
2019-02-06T05:50:05.323Z,99.08
2019-02-06T05:51:05.445Z,98.98
2019-02-06T05:52:05.297Z,99.30
2019-02-06T05:53:05.292Z,99.40
2019-02-06T05:54:05.309Z,99.30
2019-02-06T05:55:05.280Z,99.25
2019-02-06T05:56:05.258Z,98.98
2019-02-06T05:57:05.243Z,98.94
2019-02-06T05:58:15.500Z,99.19
2019-02-06T05:59:05.219Z,98.98
2019-02-06T06:00:05.383Z,99.30
2019-02-06T06:01:05.197Z,99.19
2019-02-06T06:02:05.194Z,99.30
2019-02-06T06:03:05.190Z,99.40
2019-02-06T06:04:05.168Z,98.94
2019-02-06T06:05:05.158Z,98.98
2019-02-06T06:06:05.323Z,99.08
2019-02-06T06:07:05.136Z,99.40
2019-02-06T06:08:05.140Z,99.51
2019-02-06T06:09:05.114Z,99.30
2019-02-06T06:10:05.101Z,99.40
2019-02-06T06:11:05.096Z,99.19
2019-02-06T06:12:05.130Z,99.08
2019-02-06T06:13:05.080Z,99.19
2019-02-06T06:14:05.060Z,99.30
2019-02-06T06:15:05.047Z,99.25
2019-02-06T06:16:05.050Z,99.15
2019-02-06T06:17:05.034Z,98.88
2019-02-06T06:18:05.205Z,98.77
2019-02-06T06:19:05.003Z,99.19
2019-02-06T06:20:04.991Z,99.36
2019-02-06T06:21:04.987Z,99.36
2019-02-06T06:22:04.969Z,99.57
2019-02-06T06:23:04.959Z,99.46
2019-02-06T06:24:04.993Z,99.30
2019-02-06T06:25:04.944Z,99.30
2019-02-06T06:26:04.945Z,99.57
2019-02-06T06:27:04.922Z,99.40
2019-02-06T06:28:04.906Z,99.25
2019-02-06T06:29:15.477Z,99.40
2019-02-06T06:30:04.892Z,98.83
2019-02-06T06:31:04.888Z,98.94
2019-02-06T06:32:04.868Z,99.36
2019-02-06T06:33:04.856Z,98.94
2019-02-06T06:34:04.847Z,99.04
2019-02-06T06:35:05.017Z,98.77
2019-02-06T06:36:04.831Z,99.04
2019-02-06T06:37:04.821Z,98.83
2019-02-06T06:38:04.804Z,98.62
2019-02-06T06:39:04.796Z,98.62
2019-02-06T06:40:04.788Z,98.83
2019-02-06T06:41:04.806Z,98.77
2019-02-06T06:42:04.759Z,98.77
2019-02-06T06:43:04.767Z,98.72
2019-02-06T06:44:04.746Z,98.94
2019-02-06T06:45:04.732Z,98.72
2019-02-06T06:46:04.721Z,98.52
2019-02-06T06:47:04.752Z,98.72
2019-02-06T06:48:04.706Z,98.72
2019-02-06T06:49:04.687Z,99.15
2019-02-06T06:50:04.674Z,98.72
2019-02-06T06:51:04.667Z,98.62
2019-02-06T06:52:04.652Z,98.62
2019-02-06T06:53:04.684Z,98.41
2019-02-06T06:54:04.691Z,98.83
2019-02-06T06:55:04.622Z,98.83
2019-02-06T06:56:04.613Z,98.52
2019-02-06T06:57:04.601Z,98.20
2019-02-06T06:58:04.597Z,98.30
2019-02-06T06:59:04.634Z,98.94
2019-02-06T07:00:14.917Z,98.62
2019-02-06T07:01:04.561Z,98.52
2019-02-06T07:02:04.548Z,98.30
2019-02-06T07:03:04.539Z,98.62
2019-02-06T07:04:04.530Z,98.72
2019-02-06T07:05:05.717Z,98.52
2019-02-06T07:06:04.510Z,98.36
2019-02-06T07:07:04.505Z,98.62
2019-02-06T07:08:09.602Z,98.41
2019-02-06T07:09:05.470Z,98.52
2019-02-06T07:10:04.461Z,98.10
2019-02-06T07:11:04.491Z,98.10
2019-02-06T07:12:04.445Z,98.41
2019-02-06T07:13:04.458Z,98.58
2019-02-06T07:14:04.426Z,98.72
2019-02-06T07:15:04.417Z,98.36
2019-02-06T07:16:04.400Z,97.94
2019-02-06T07:17:04.485Z,98.16
2019-02-06T07:18:04.381Z,98.16
2019-02-06T07:19:04.379Z,98.26
2019-02-06T07:20:04.370Z,97.21
2019-02-06T07:21:04.353Z,97.31
2019-02-06T07:22:04.334Z,97.53
2019-02-06T07:23:04.371Z,97.21
2019-02-06T07:24:04.327Z,97.21
2019-02-06T07:25:04.307Z,97.31
2019-02-06T07:26:04.316Z,97.21
2019-02-06T07:27:04.280Z,97.42
2019-02-06T07:28:04.273Z,97.42
2019-02-06T07:29:04.441Z,97.31
2019-02-06T07:30:04.251Z,97.42
2019-02-06T07:31:15.067Z,96.58
2019-02-06T07:32:04.226Z,97.11
2019-02-06T07:33:04.225Z,97.31
2019-02-06T07:34:04.210Z,96.79
2019-02-06T07:35:04.242Z,97.21
2019-02-06T07:36:04.199Z,97.63
2019-02-06T07:37:04.173Z,96.58
2019-02-06T07:38:04.164Z,97.42
2019-02-06T07:39:04.168Z,97.42
2019-02-06T07:40:04.150Z,96.79
2019-02-06T07:41:04.170Z,96.69
2019-02-06T07:42:04.252Z,97.27
2019-02-06T07:43:04.112Z,96.75
2019-02-06T07:44:04.109Z,96.89
2019-02-06T07:45:04.090Z,97.00
2019-02-06T07:46:04.084Z,97.11
2019-02-06T07:47:04.113Z,97.00
2019-02-06T07:48:04.067Z,96.75
2019-02-06T07:49:04.065Z,96.95
2019-02-06T07:50:04.041Z,96.75
2019-02-06T07:51:04.043Z,97.06
2019-02-06T07:52:04.014Z,97.27
2019-02-06T07:53:04.045Z,97.17
2019-02-06T07:54:03.996Z,96.53
2019-02-06T07:55:03.990Z,96.53
2019-02-06T07:56:03.978Z,96.85
2019-02-06T07:57:03.966Z,96.28
2019-02-06T07:58:03.958Z,96.70
2019-02-06T07:59:03.977Z,96.22
2019-02-06T08:00:04.060Z,96.28
2019-02-06T08:01:03.939Z,96.22
2019-02-06T08:02:14.820Z,96.07
2019-02-06T08:03:03.909Z,96.18
2019-02-06T08:04:03.886Z,96.12
2019-02-06T08:05:03.917Z,96.01
2019-02-06T08:06:03.865Z,96.07
2019-02-06T08:07:03.869Z,96.07
2019-02-06T08:08:03.848Z,95.86
2019-02-06T08:09:03.841Z,96.18
2019-02-06T08:10:03.823Z,95.86
2019-02-06T08:11:03.860Z,95.76
2019-02-06T08:12:03.806Z,95.23
2019-02-06T08:13:03.806Z,95.02
2019-02-06T08:14:03.788Z,94.87
2019-02-06T08:15:03.772Z,95.13
2019-02-06T08:16:03.769Z,95.13
2019-02-06T08:17:03.911Z,94.87
2019-02-06T08:18:03.740Z,94.81
2019-02-06T08:19:03.748Z,94.67
2019-02-06T08:20:03.717Z,95.13
2019-02-06T08:21:03.710Z,95.19
2019-02-06T08:22:03.699Z,95.19
2019-02-06T08:23:11.540Z,94.87
2019-02-06T08:24:03.677Z,94.92
2019-02-06T08:25:03.686Z,95.02
2019-02-06T08:26:03.660Z,94.67
2019-02-06T08:27:03.647Z,95.13
2019-02-06T08:28:03.656Z,94.98
2019-02-06T08:29:03.656Z,95.08
2019-02-06T08:30:03.617Z,95.29
2019-02-06T08:31:03.603Z,95.19
2019-02-06T08:32:03.592Z,94.29
2019-02-06T08:33:03.603Z,94.98
2019-02-06T08:34:03.571Z,94.81
2019-02-06T08:35:03.611Z,95.13
2019-02-06T08:36:03.553Z,95.29
2019-02-06T08:37:03.542Z,94.87
2019-02-06T08:38:03.540Z,95.19
2019-02-06T08:39:03.524Z,95.19
2019-02-06T08:40:03.507Z,94.35
2019-02-06T08:41:10.576Z,94.51
2019-02-06T08:42:03.480Z,93.93
2019-02-06T08:43:03.495Z,95.08
2019-02-06T08:44:03.464Z,95.08
2019-02-06T08:45:03.448Z,95.19
2019-02-06T08:46:03.449Z,94.77
2019-02-06T08:47:03.468Z,94.77
2019-02-06T08:48:03.419Z,94.29
2019-02-06T08:49:03.473Z,95.08
2019-02-06T08:50:03.408Z,95.08
2019-02-06T08:51:03.384Z,94.87
2019-02-06T08:52:03.376Z,95.23
2019-02-06T08:53:03.453Z,95.08
2019-02-06T08:54:03.360Z,94.67
2019-02-06T08:55:03.347Z,95.13
2019-02-06T08:56:03.353Z,94.60
2019-02-06T08:57:03.325Z,94.87
2019-02-06T08:58:03.313Z,95.19
2019-02-06T08:59:03.429Z,94.87
2019-02-06T09:00:03.292Z,94.87
2019-02-06T09:01:03.284Z,95.23
2019-02-06T09:02:03.269Z,94.92
2019-02-06T09:03:03.280Z,95.29
2019-02-06T09:04:03.247Z,94.87
2019-02-06T09:05:03.461Z,94.71
2019-02-06T09:06:03.234Z,95.19
2019-02-06T09:07:03.216Z,95.13
2019-02-06T09:08:03.218Z,95.08
2019-02-06T09:09:03.196Z,95.13
2019-02-06T09:10:03.197Z,94.87
2019-02-06T09:11:10.607Z,95.19
2019-02-06T09:12:03.165Z,95.40
2019-02-06T09:13:10.150Z,95.19
2019-02-06T09:14:03.143Z,94.45
2019-02-06T09:15:03.137Z,94.56
2019-02-06T09:16:03.122Z,94.67
2019-02-06T09:17:03.248Z,95.08
2019-02-06T09:18:03.182Z,95.08
2019-02-06T09:19:03.105Z,94.56
2019-02-06T09:20:03.082Z,95.19
2019-02-06T09:21:03.290Z,95.34
2019-02-06T09:22:03.054Z,95.19
2019-02-06T09:23:03.088Z,95.50
2019-02-06T09:24:03.088Z,95.19
2019-02-06T09:25:03.028Z,94.87
2019-02-06T09:26:03.014Z,95.29
2019-02-06T09:27:03.017Z,94.77
2019-02-06T09:28:02.992Z,95.02
2019-02-06T09:29:03.080Z,95.40
2019-02-06T09:30:02.973Z,95.92
2019-02-06T09:31:02.954Z,96.03
2019-02-06T09:32:02.960Z,95.17
2019-02-06T09:33:02.941Z,94.33
2019-02-06T09:34:02.937Z,93.11
2019-02-06T09:35:02.936Z,93.05
2019-02-06T09:36:02.909Z,92.84
2019-02-06T09:37:05.092Z,92.77
2019-02-06T09:38:09.879Z,92.35
2019-02-06T09:39:11.309Z,92.04
2019-02-06T09:40:04.037Z,91.83
2019-02-06T09:41:02.847Z,91.24
2019-02-06T09:42:02.843Z,91.13
2019-02-06T09:43:02.834Z,91.17
2019-02-06T09:44:02.822Z,90.26
2019-02-06T09:45:02.805Z,91.11
2019-02-06T09:46:02.857Z,91.00
2019-02-06T09:47:02.789Z,91.36
2019-02-06T09:48:02.778Z,91.57
2019-02-06T09:49:02.768Z,91.15
2019-02-06T09:50:02.759Z,90.94
2019-02-06T09:51:02.748Z,91.09
2019-02-06T09:52:02.774Z,90.88
2019-02-06T09:53:02.729Z,91.51
2019-02-06T09:54:02.719Z,91.13
2019-02-06T09:55:02.703Z,91.02
2019-02-06T09:56:02.694Z,90.81
2019-02-06T09:57:02.685Z,90.70
2019-02-06T09:58:02.844Z,91.13
2019-02-06T09:59:02.669Z,90.22
2019-02-06T10:00:02.646Z,89.48
2019-02-06T10:01:02.637Z,89.79
2019-02-06T10:02:02.626Z,89.42
2019-02-06T10:03:02.626Z,89.56
2019-02-06T10:04:02.833Z,90.83
2019-02-06T10:05:02.593Z,90.41
2019-02-06T10:06:02.593Z,91.14
2019-02-06T10:07:02.571Z,89.88
2019-02-06T10:08:02.574Z,89.35
2019-02-06T10:09:22.526Z,90.72
2019-02-06T10:10:03.540Z,89.77
2019-02-06T10:11:02.528Z,89.61
2019-02-06T10:12:02.518Z,90.34
2019-02-06T10:13:02.515Z,89.50
2019-02-06T10:14:02.526Z,89.50
2019-02-06T10:15:02.505Z,89.75
2019-02-06T10:16:09.508Z,89.75
2019-02-06T10:17:02.466Z,90.70
2019-02-06T10:18:02.461Z,90.91
2019-02-06T10:19:02.445Z,90.70
2019-02-06T10:20:02.435Z,90.70
2019-02-06T10:21:02.467Z,90.81
2019-02-06T10:22:02.418Z,90.17
2019-02-06T10:23:02.417Z,89.75
2019-02-06T10:24:02.395Z,89.75
2019-02-06T10:25:02.379Z,90.28
2019-02-06T10:26:02.380Z,90.00
2019-02-06T10:27:02.407Z,90.00
2019-02-06T10:28:02.355Z,90.84
2019-02-06T10:29:02.342Z,89.94
2019-02-06T10:30:04.003Z,90.57
2019-02-06T10:31:02.321Z,91.03
2019-02-06T10:32:02.304Z,91.10
2019-02-06T10:33:02.476Z,91.25
2019-02-06T10:34:02.294Z,91.63
2019-02-06T10:35:02.274Z,91.20
2019-02-06T10:36:02.288Z,90.89
2019-02-06T10:37:02.250Z,91.31
2019-02-06T10:38:02.248Z,90.93
2019-02-06T10:39:02.653Z,90.99
2019-02-06T10:40:02.226Z,90.99
2019-02-06T10:41:04.582Z,90.04
2019-02-06T10:42:02.202Z,90.25
2019-02-06T10:43:02.194Z,90.04
2019-02-06T10:44:02.181Z,90.47
2019-02-06T10:45:02.214Z,90.04
2019-02-06T10:46:02.164Z,89.40
2019-02-06T10:47:12.850Z,89.09
2019-02-06T10:48:02.137Z,89.51
2019-02-06T10:49:02.129Z,89.40
2019-02-06T10:50:02.125Z,89.40
2019-02-06T10:51:02.169Z,89.79
2019-02-06T10:52:02.105Z,89.69
2019-02-06T10:53:02.090Z,89.20
2019-02-06T10:54:02.087Z,89.26
2019-02-06T10:55:02.071Z,89.51
2019-02-06T10:56:02.052Z,89.58
2019-02-06T10:57:02.202Z,88.77
2019-02-06T10:58:02.037Z,88.73
2019-02-06T10:59:02.016Z,88.62
2019-02-06T11:00:02.019Z,88.10
2019-02-06T11:01:01.999Z,88.17
2019-02-06T11:02:01.990Z,88.37
2019-02-06T11:03:02.065Z,88.17
2019-02-06T11:04:01.964Z,87.28
2019-02-06T11:05:01.958Z,87.00
2019-02-06T11:06:01.957Z,87.10
2019-02-06T11:07:01.932Z,87.10
2019-02-06T11:08:01.928Z,87.36
2019-02-06T11:09:01.955Z,86.90
2019-02-06T11:10:01.903Z,87.10
2019-02-06T11:11:01.891Z,86.58
2019-02-06T11:12:01.883Z,85.84
2019-02-06T11:13:01.870Z,85.84
2019-02-06T11:14:01.873Z,85.73
2019-02-06T11:15:01.946Z,85.46
2019-02-06T11:16:01.848Z,85.91
2019-02-06T11:17:01.832Z,85.06
2019-02-06T11:18:12.489Z,85.34
2019-02-06T11:19:01.913Z,83.54
2019-02-06T11:20:01.819Z,82.98
2019-02-06T11:21:01.823Z,82.41
2019-02-06T11:22:01.790Z,80.97
2019-02-06T11:23:01.770Z,82.03
2019-02-06T11:24:01.764Z,81.39
2019-02-06T11:25:04.639Z,81.78
2019-02-06T11:26:01.741Z,81.12
2019-02-06T11:27:01.762Z,81.93
2019-02-06T11:28:01.717Z,82.53
2019-02-06T11:29:01.699Z,83.72
2019-02-06T11:30:01.703Z,84.36
2019-02-06T11:31:01.678Z,84.08
2019-02-06T11:32:01.753Z,84.47
2019-02-06T11:33:01.700Z,85.85
2019-02-06T11:34:01.657Z,86.59
2019-02-06T11:35:02.520Z,86.02
2019-02-06T11:36:01.635Z,86.27
2019-02-06T11:37:01.617Z,85.74
2019-02-06T11:38:01.609Z,86.73
2019-02-06T11:39:01.644Z,86.24
2019-02-06T11:40:01.583Z,87.48
2019-02-06T11:41:02.132Z,87.58
2019-02-06T11:42:01.567Z,87.05
2019-02-06T11:43:01.555Z,86.84
2019-02-06T11:44:01.551Z,85.96
2019-02-06T11:45:01.572Z,86.41
2019-02-06T11:46:01.519Z,85.04
2019-02-06T11:47:01.512Z,85.04
2019-02-06T11:48:01.512Z,85.42
2019-02-06T11:49:11.665Z,84.41
2019-02-06T11:50:01.486Z,84.61
2019-02-06T11:51:01.538Z,83.84
2019-02-06T11:52:01.459Z,83.09
2019-02-06T11:53:01.457Z,82.92
2019-02-06T11:54:01.443Z,83.37
2019-02-06T11:55:01.438Z,81.75
2019-02-06T11:56:02.152Z,79.88
2019-02-06T11:57:01.492Z,79.32
2019-02-06T11:58:01.395Z,78.69
2019-02-06T11:59:01.381Z,80.41
2019-02-06T12:00:01.370Z,81.43
2019-02-06T12:01:01.367Z,81.12
2019-02-06T12:02:01.370Z,81.96
2019-02-06T12:03:01.367Z,82.14
2019-02-06T12:04:01.332Z,81.97
2019-02-06T12:05:01.328Z,83.17
2019-02-06T12:06:01.313Z,84.16
2019-02-06T12:07:01.302Z,84.06
2019-02-06T12:08:01.293Z,84.97
2019-02-06T12:09:01.594Z,85.11
2019-02-06T12:10:09.394Z,84.59
2019-02-06T12:11:02.255Z,84.59
2019-02-06T12:12:01.246Z,84.84
2019-02-06T12:13:01.241Z,85.26
2019-02-06T12:14:01.226Z,85.16
2019-02-06T12:15:01.235Z,85.26
2019-02-06T12:16:01.214Z,84.69
2019-02-06T12:17:01.199Z,84.52
2019-02-06T12:18:01.189Z,85.47
2019-02-06T12:19:01.175Z,84.94
2019-02-06T12:20:11.717Z,84.94
2019-02-06T12:21:01.157Z,86.00
2019-02-06T12:22:01.143Z,85.16
2019-02-06T12:23:01.133Z,83.81
2019-02-06T12:24:02.625Z,85.09
2019-02-06T12:25:01.114Z,84.34
2019-02-06T12:26:01.141Z,84.70
2019-02-06T12:27:01.083Z,85.09
2019-02-06T12:28:01.081Z,84.03
2019-02-06T12:29:01.070Z,83.35
2019-02-06T12:30:01.058Z,83.56
2019-02-06T12:31:01.045Z,82.46
2019-02-06T12:32:01.076Z,81.83
2019-02-06T12:33:01.028Z,79.39
2019-02-06T12:34:01.017Z,73.00
2019-02-06T12:35:01.007Z,67.55
2019-02-06T12:36:00.992Z,63.04
2019-02-06T12:37:00.981Z,59.74
2019-02-06T12:38:01.034Z,59.55
2019-02-06T12:39:00.965Z,56.86
2019-02-06T12:40:00.952Z,55.53
2019-02-06T12:41:00.932Z,54.97
2019-02-06T12:42:00.933Z,56.54
2019-02-06T12:43:00.913Z,56.65
2019-02-06T12:44:00.922Z,56.34
2019-02-06T12:45:00.891Z,55.19
2019-02-06T12:46:00.883Z,55.68
2019-02-06T12:47:00.873Z,54.56
2019-02-06T12:48:00.856Z,55.60
2019-02-06T12:49:00.848Z,57.82
2019-02-06T12:50:01.012Z,57.85
2019-02-06T12:51:11.834Z,57.12
2019-02-06T12:52:00.811Z,58.84